world map with MDY marked

MDY - Airport

This information may not be accurate or current and is not valid for navigation or flight planning. No warranty of fitness for any purpose is made or implied.

flag of United States Minor Outlying Islands

Donate via PayPal

Additional information is available on the NEW Great Circle Mapper

Location
City:  Sand Island, Midway Atoll, United States Minor Outlying Islands
Name:Henderson Field
ICAO / IATA:PMDY / MDY
FAA:MDY

Details
Type:Airport (Part 139 Class IV)
Use:Public/Civil
Latitude:28°12'05"N (28.201483)
Longitude:177°22'53"W (-177.381307)
Datum:WGS 1984
Elevation:18 ft (5 m)
Runways:1
Longest:7800 × 150 ft (2377 × 45.5 m)

Time
Timezone:UTC+23:08 (DST+25:08)
Local Time:

Weather
METAR:PMDY  280856Z AUTO 07007KT 10SM SCT023 BKN037 OVC044 17/14 A3000 RMK AO2 SLP159 T01720144 50007
TAF:PMDY  280538Z 2806/0106 VRB06KT P6SM SCT025 SCT045= TAF KROC 280541Z 2806/0106 19004KT P6SM OVC090
FM281200 15005KT P6SM BKN090
FM281900 17010G16KT P6SM OVC050
FM010300 19013KT P6SM OVC035
FM010500 20013KT P6SM VCSH SCT035 OVC100

Related Locations
Nearby:
Farthest:LUD: 11664 mi / 18771 km
Luderitz [Diaz Point Airport], KA, NA

Find:

   beyond  
but within

Other Information
Maps:
Links:
Sources:

  


 


Great Circle Mapper   Great Circle Mapper
Great Circle Mapper FAQ   Great Circle Mapper FAQ
  Karl's Home Page
KLSē   KLSē Home
   GC on Facebook
Airlines of the World   Airlines of the World
Donate via PayPal


Copyright © 2004-2017, Karl L. Swartz. All rights reserved.
All trademarks mentioned herein belong to their respective owners.

Please see credits for attribution and copyright information.

Karl Swartz <karl@kls2.com>
  Powered by FreeBSD
Valid HTML 4.01!
Labeled with ICRA
hCard Microformat
Geo Microformat